Time;durP1;ratioP1;P1;durP2;ratioP2;P2;SDS_P1;SDS_P2;PMS_P1;PMS_P2;Temp;Humidity;BMP_temperature;BMP_pressure;BME280_temperature;BME280_humidity;BME280_pressure;Samples;Min_cycle;Max_cycle;Signal;HPM_P1;HPM_P2
2021/06/16 15:35:08;;;;;;;3.80;3.50;;;26.20;60.70;;;;;;6173279;22;20025;-93
2021/06/16 15:47:36;;;;;;;3.20;2.88;;;25.50;62.20;;;;;;6138137;23;20024;-94
2021/06/16 15:50:04;;;;;;;2.83;2.63;;;25.40;62.90;;;;;;6108538;23;20014;-94
2021/06/16 15:52:31;;;;;;;6.43;3.15;;;25.40;63.00;;;;;;6077512;23;20026;-95
2021/06/16 16:05:18;;;;;;;4.97;2.95;;;25.20;65.20;;;;;;6101991;23;20022;-94
2021/06/16 16:08:52;;;;;;;;;;;;;;;;;;;;;
2021/06/16 16:15:46;;;;;;;;;;;;;;;;;;;;;
2021/06/16 16:21:39;;;;;;;4.82;3.65;;;24.80;68.10;;;;;;6029129;23;20004;-96
2021/06/16 16:27:18;;;;;;;2.50;2.30;;;24.50;71.20;;;;;;6098874;23;20085;-95
2021/06/16 16:44:11;;;;;;;3.17;2.28;;;23.10;76.00;;;;;;6127668;23;20021;-95
2021/06/16 16:46:42;;;;;;;3.13;2.00;;;22.90;76.50;;;;;;6105566;23;20014;-95
2021/06/16 17:00:20;;;;;;;1.70;1.60;;;22.20;79.10;;;;;;6100925;23;20033;-95
2021/06/16 17:03:20;;;;;;;2.38;1.80;;;22.00;79.50;;;;;;6074295;23;20025;-95
2021/06/16 17:16:09;;;;;;;;;;;;;;;;;;;;;
2021/06/16 17:25:47;;;;;;;1.50;1.40;;;21.40;82.50;;;;;;6154518;23;20013;-95
2021/06/16 17:28:17;;;;;;;1.52;1.30;;;21.30;82.30;;;;;;6154479;23;19997;-93
2021/06/16 17:30:43;;;;;;;1.50;1.33;;;21.30;82.20;;;;;;6127860;23;20006;-95
2021/06/16 17:33:09;;;;;;;1.30;1.08;;;21.10;82.70;;;;;;6128125;23;20016;-93
2021/06/16 17:35:38;;;;;;;1.38;1.25;;;21.00;83.10;;;;;;6128434;23;20328;-91
2021/06/16 17:38:08;;;;;;;2.10;1.27;;;20.90;83.50;;;;;;6153562;23;20017;-92
2021/06/16 17:40:34;;;;;;;0.80;0.80;;;20.80;83.70;;;;;;6128367;23;20021;-92
2021/06/16 17:43:02;;;;;;;1.50;1.40;;;20.70;84.30;;;;;;6129042;23;20002;-94
2021/06/16 17:45:42;;;;;;;;;;;;;;;;;;;;;
2021/06/16 17:51:41;;;;;;;1.90;1.02;;;20.50;85.50;;;;;;6207673;22;20057;-94
2021/06/16 17:54:15;;;;;;;0.70;0.70;;;20.40;85.50;;;;;;6138929;23;19986;-95
2021/06/16 17:56:45;;;;;;;1.33;1.00;;;20.40;85.70;;;;;;6164011;23;20006;-95
2021/06/16 17:59:13;;;;;;;1.73;1.52;;;20.40;86.10;;;;;;6139536;23;20017;-92
2021/06/16 18:05:01;;;;;;;1.20;1.20;;;20.20;87.10;;;;;;6159178;23;20020;-91
2021/06/16 18:10:50;;;;;;;1.00;1.00;;;20.20;86.30;;;;;;6155587;23;20127;-93
2021/06/16 18:13:18;;;;;;;1.10;1.10;;;20.10;86.50;;;;;;6134932;23;20055;-93
2021/06/16 18:15:44;;;;;;;2.05;1.77;;;20.00;86.70;;;;;;6148164;23;20081;-94
2021/06/16 18:18:10;;;;;;;2.05;1.75;;;20.00;88.10;;;;;;6149992;23;20025;-95
2021/06/16 18:24:02;;;;;;;1.50;1.27;;;19.80;90.70;;;;;;6178014;23;20024;-95
2021/06/16 18:26:28;;;;;;;1.38;1.15;;;19.70;88.30;;;;;;6127745;23;20002;-95
2021/06/16 18:28:57;;;;;;;1.83;1.55;;;19.70;88.30;;;;;;6160840;22;20026;-95
2021/06/16 18:31:27;;;;;;;1.95;1.75;;;19.70;88.70;;;;;;6177596;23;20002;-95
2021/06/16 18:33:55;;;;;;;1.48;1.38;;;19.60;89.40;;;;;;6177448;23;20076;-93
2021/06/16 18:39:43;;;;;;;2.22;1.67;;;19.50;89.80;;;;;;6176877;23;20039;-94
2021/06/16 18:42:09;;;;;;;1.77;1.63;;;19.40;89.80;;;;;;6177020;23;20009;-94
2021/06/16 18:48:01;;;;;;;2.00;1.65;;;19.30;90.10;;;;;;6177726;23;20008;-93
2021/06/16 18:50:29;;;;;;;1.48;1.38;;;19.30;90.00;;;;;;6177480;23;19992;-95
2021/06/16 18:53:00;;;;;;;1.95;1.85;;;19.20;90.20;;;;;;6176816;23;19998;-94
2021/06/16 18:55:30;;;;;;;1.98;1.70;;;19.20;90.50;;;;;;6177553;23;20001;-94
2021/06/16 18:57:59;;;;;;;1.80;1.70;;;19.20;90.50;;;;;;6177179;23;20020;-95
2021/06/16 19:00:28;;;;;;;2.75;1.73;;;19.10;90.70;;;;;;6176921;23;20017;-95
2021/06/16 19:03:00;;;;;;;1.45;1.35;;;19.10;91.00;;;;;;6175194;23;19997;-94
2021/06/16 19:05:27;;;;;;;2.10;1.70;;;19.00;91.00;;;;;;6174496;23;20005;-93
2021/06/16 19:07:56;;;;;;;2.83;1.63;;;19.00;91.00;;;;;;6172884;23;20005;-94
2021/06/16 19:10:27;;;;;;;2.00;1.90;;;19.00;91.40;;;;;;6171033;23;20028;-94
2021/06/16 19:12:53;;;;;;;2.10;1.90;;;19.00;91.40;;;;;;6168840;23;20005;-94
2021/06/16 19:15:20;;;;;;;2.40;2.20;;;19.00;91.70;;;;;;6169361;23;19997;-95
2021/06/16 19:17:49;;;;;;;2.65;2.15;;;19.00;91.90;;;;;;6169787;23;20009;-94
2021/06/16 19:20:15;;;;;;;2.05;1.75;;;19.00;92.00;;;;;;6172000;23;20009;-94
2021/06/16 19:22:44;;;;;;;2.90;2.10;;;19.00;91.90;;;;;;6170035;23;19994;-94
2021/06/16 19:25:12;;;;;;;2.20;2.00;;;19.00;92.20;;;;;;6172422;23;20003;-95
2021/06/16 19:27:39;;;;;;;2.17;1.58;;;19.10;92.40;;;;;;6173665;23;20031;-93
2021/06/16 19:30:06;;;;;;;2.20;2.00;;;19.10;92.50;;;;;;6175308;23;20065;-94
2021/06/16 19:32:32;;;;;;;2.67;1.80;;;19.10;92.30;;;;;;6176253;23;19997;-94
2021/06/16 19:35:00;;;;;;;2.30;2.10;;;19.00;92.40;;;;;;6175576;23;20039;-94
2021/06/16 19:37:26;;;;;;;2.55;2.10;;;19.10;92.70;;;;;;6176331;23;20008;-94
2021/06/16 19:39:52;;;;;;;1.98;1.70;;;19.00;92.70;;;;;;6174819;23;20080;-95
2021/06/16 19:42:18;;;;;;;2.25;2.08;;;19.00;92.70;;;;;;6175587;23;20008;-95
2021/06/16 19:44:44;;;;;;;3.45;2.47;;;19.00;92.70;;;;;;6173199;23;19998;-94
2021/06/16 19:47:09;;;;;;;3.45;2.80;;;19.00;93.10;;;;;;6168304;23;20089;-94
2021/06/16 19:49:36;;;;;;;4.70;2.70;;;19.00;93.10;;;;;;6163931;23;20002;-94
2021/06/16 19:52:02;;;;;;;3.13;2.67;;;18.90;93.20;;;;;;6164993;23;19994;-93
2021/06/16 19:54:32;;;;;;;6.40;2.53;;;18.90;93.40;;;;;;6169611;23;20057;-94
2021/06/16 19:56:58;;;;;;;3.85;2.60;;;18.80;93.50;;;;;;6172689;23;20057;-93
2021/06/16 19:59:25;;;;;;;2.65;2.45;;;18.80;93.80;;;;;;6171995;23;20021;-94
2021/06/16 20:01:50;;;;;;;2.97;2.67;;;18.70;94.00;;;;;;6171634;23;20013;-93
2021/06/16 20:04:16;;;;;;;3.75;2.80;;;18.70;94.50;;;;;;6175844;23;19997;-93
2021/06/16 20:06:42;;;;;;;2.60;2.40;;;18.60;94.20;;;;;;6176059;23;20008;-95
2021/06/16 20:09:15;;;;;;;3.33;2.92;;;18.60;94.40;;;;;;6176519;23;20054;-95
2021/06/16 20:11:41;;;;;;;3.55;2.78;;;18.50;94.80;;;;;;6177367;23;20001;-94
2021/06/16 20:14:09;;;;;;;2.40;2.20;;;18.40;94.90;;;;;;6179147;23;19990;-95
2021/06/16 20:16:35;;;;;;;3.30;2.50;;;18.40;95.10;;;;;;6178261;23;20002;-93
2021/06/16 20:19:02;;;;;;;2.67;2.42;;;18.40;95.00;;;;;;6180343;23;20042;-94
2021/06/16 20:21:29;;;;;;;2.50;2.17;;;18.30;95.00;;;;;;6179418;23;19990;-94
2021/06/16 20:23:56;;;;;;;4.35;2.70;;;18.30;95.00;;;;;;6203756;23;20001;-94
2021/06/16 20:26:22;;;;;;;2.45;2.15;;;18.30;95.00;;;;;;6230488;23;20026;-94
2021/06/16 20:28:51;;;;;;;2.85;2.58;;;18.20;95.10;;;;;;6239504;23;20060;-94
2021/06/16 20:31:19;;;;;;;4.88;3.00;;;18.30;95.00;;;;;;6238757;23;20011;-94
2021/06/16 20:33:55;;;;;;;2.28;2.08;;;18.20;94.90;;;;;;6238704;23;20052;-94
2021/06/16 20:36:21;;;;;;;3.30;2.30;;;18.20;94.90;;;;;;6235552;23;20004;-94
2021/06/16 20:38:47;;;;;;;3.30;2.50;;;18.10;95.10;;;;;;6235203;23;19999;-93
2021/06/16 20:41:13;;;;;;;7.32;2.92;;;18.10;95.20;;;;;;6235707;23;20001;-92
2021/06/16 20:43:40;;;;;;;3.05;2.75;;;18.10;95.40;;;;;;6238650;23;20065;-92
2021/06/16 20:46:06;;;;;;;3.55;2.75;;;18.00;95.60;;;;;;6237492;23;20022;-92
2021/06/16 20:48:34;;;;;;;3.22;2.92;;;18.00;95.60;;;;;;6236883;23;20006;-93
2021/06/16 20:51:00;;;;;;;4.50;2.58;;;17.90;96.30;;;;;;6234832;23;20071;-94
2021/06/16 20:53:26;;;;;;;2.95;2.65;;;17.90;96.30;;;;;;6235207;23;19993;-93
2021/06/16 20:55:53;;;;;;;3.17;2.63;;;17.90;96.40;;;;;;6234427;23;20000;-94
2021/06/16 20:58:19;;;;;;;3.47;2.92;;;17.90;96.60;;;;;;6233787;23;20001;-94
2021/06/16 21:00:45;;;;;;;3.50;2.70;;;17.90;96.70;;;;;;6234676;23;19997;-94
2021/06/16 21:03:12;;;;;;;3.28;2.50;;;17.90;96.70;;;;;;6235525;22;19985;-94
2021/06/16 21:05:38;;;;;;;4.57;2.83;;;17.90;96.80;;;;;;6236144;23;19991;-94
2021/06/16 21:08:06;;;;;;;3.00;2.58;;;17.90;96.70;;;;;;6235997;23;19997;-94
2021/06/16 21:10:34;;;;;;;4.45;2.92;;;17.90;96.80;;;;;;6236833;23;19996;-94
2021/06/16 21:13:00;;;;;;;2.80;2.55;;;17.80;97.10;;;;;;6236469;23;20011;-95
2021/06/16 21:15:27;;;;;;;3.70;2.65;;;17.80;97.10;;;;;;6235207;23;20005;-94
2021/06/16 21:17:53;;;;;;;3.67;2.95;;;17.80;97.10;;;;;;6237122;23;20004;-94
2021/06/16 21:20:22;;;;;;;2.75;2.40;;;17.80;97.10;;;;;;6237068;23;19988;-94
2021/06/16 21:22:48;;;;;;;3.92;3.10;;;17.80;97.20;;;;;;6236608;23;19992;-94
2021/06/16 21:25:14;;;;;;;3.63;3.08;;;17.70;97.40;;;;;;6235316;23;20062;-94
2021/06/16 21:27:40;;;;;;;3.55;3.17;;;17.70;97.60;;;;;;6235956;23;19996;-94
2021/06/16 21:30:07;;;;;;;3.83;3.50;;;17.70;98.10;;;;;;6236527;22;20004;-93
2021/06/16 21:32:34;;;;;;;4.32;3.45;;;17.70;98.50;;;;;;6235127;23;19997;-95
2021/06/16 21:35:00;;;;;;;3.78;3.25;;;17.70;98.20;;;;;;6235418;23;20011;-95
2021/06/16 21:37:26;;;;;;;3.60;2.78;;;17.70;98.10;;;;;;6234617;23;20027;-94
2021/06/16 21:39:52;;;;;;;3.60;2.83;;;17.70;98.00;;;;;;6208681;23;20000;-94
2021/06/16 21:42:20;;;;;;;3.78;2.60;;;17.70;98.00;;;;;;6235198;23;20008;-95
2021/06/16 21:44:46;;;;;;;3.40;2.67;;;17.80;98.10;;;;;;6234665;23;19997;-94
2021/06/16 21:47:17;;;;;;;4.63;3.70;;;17.80;98.10;;;;;;6235613;23;20008;-94
2021/06/16 21:49:43;;;;;;;4.05;3.30;;;17.80;98.40;;;;;;6236358;23;20004;-93
2021/06/16 21:52:09;;;;;;;3.45;3.05;;;17.70;98.40;;;;;;6236567;23;20017;-94
2021/06/16 21:54:35;;;;;;;7.78;4.90;;;17.80;98.50;;;;;;6236952;23;20000;-95
2021/06/16 21:57:02;;;;;;;5.57;4.43;;;17.80;99.00;;;;;;6236311;23;19992;-94
2021/06/16 21:59:28;;;;;;;4.18;3.78;;;17.80;99.10;;;;;;6238334;23;20000;-94
2021/06/16 22:01:55;;;;;;;5.13;4.30;;;17.80;99.10;;;;;;6236741;23;19985;-93
2021/06/16 22:04:20;;;;;;;6.07;4.28;;;17.80;99.20;;;;;;6237072;23;20019;-94
2021/06/16 22:06:47;;;;;;;7.30;4.78;;;17.80;99.40;;;;;;6237300;23;20005;-94
2021/06/16 22:09:13;;;;;;;5.60;5.03;;;17.80;99.60;;;;;;6236379;23;20008;-94
2021/06/16 22:11:41;;;;;;;4.85;4.28;;;17.70;99.60;;;;;;6237116;23;19997;-94
2021/06/16 22:14:09;;;;;;;5.03;4.10;;;17.80;99.60;;;;;;6236731;22;20011;-94
2021/06/16 22:16:35;;;;;;;5.05;3.75;;;17.70;99.30;;;;;;6236544;22;20012;-93
2021/06/16 22:19:02;;;;;;;4.63;4.22;;;17.70;99.40;;;;;;6236000;23;19997;-93
2021/06/16 22:21:28;;;;;;;5.60;4.57;;;17.70;99.30;;;;;;6237322;23;20408;-94
2021/06/16 22:23:54;;;;;;;7.85;4.65;;;17.70;99.80;;;;;;6237820;23;20005;-94
2021/06/16 22:26:20;;;;;;;6.38;4.70;;;17.70;99.90;;;;;;6236456;23;20020;-94
2021/06/16 22:28:45;;;;;;;5.95;4.47;;;17.70;99.80;;;;;;6235493;23;20084;-93
2021/06/16 22:31:19;;;;;;;5.68;4.78;;;17.70;99.70;;;;;;6236393;23;20028;-93
2021/06/16 22:33:48;;;;;;;5.13;4.45;;;17.60;99.90;;;;;;6237135;23;20007;-94
2021/06/16 22:36:15;;;;;;;5.30;4.40;;;17.60;99.80;;;;;;6237418;23;20009;-93
2021/06/16 22:38:41;;;;;;;5.30;4.20;;;17.60;99.90;;;;;;6237312;23;20348;-94
2021/06/16 22:41:07;;;;;;;6.75;4.88;;;17.60;99.90;;;;;;6237025;23;20001;-93
2021/06/16 22:43:33;;;;;;;5.47;4.60;;;17.60;99.90;;;;;;6235944;23;20001;-94
2021/06/16 22:45:59;;;;;;;6.72;5.40;;;17.70;99.90;;;;;;6235777;23;20020;-93
2021/06/16 22:48:25;;;;;;;7.40;5.97;;;17.70;99.90;;;;;;6234006;23;20079;-93
2021/06/16 22:50:51;;;;;;;6.28;5.05;;;17.70;99.90;;;;;;6235426;23;19984;-94
2021/06/16 22:53:17;;;;;;;7.40;6.05;;;17.60;99.90;;;;;;6234961;23;19996;-94
2021/06/16 22:55:43;;;;;;;7.88;5.97;;;17.70;99.90;;;;;;6233501;22;20042;-93
2021/06/16 22:58:12;;;;;;;7.38;5.65;;;17.70;99.90;;;;;;6234957;23;20019;-93
2021/06/16 23:00:38;;;;;;;7.38;6.25;;;17.70;99.90;;;;;;6234595;23;20000;-93
2021/06/16 23:03:04;;;;;;;5.43;4.72;;;17.70;99.90;;;;;;6232942;23;20001;-93
2021/06/16 23:05:39;;;;;;;5.95;5.10;;;17.70;99.90;;;;;;6235337;23;20031;-94
2021/06/16 23:08:08;;;;;;;6.43;4.95;;;17.70;99.90;;;;;;6235560;23;19993;-93
2021/06/16 23:10:35;;;;;;;5.45;4.65;;;17.70;99.90;;;;;;6236749;23;20026;-93
2021/06/16 23:13:01;;;;;;;6.93;6.03;;;17.70;99.90;;;;;;6236501;23;20000;-94
2021/06/16 23:15:28;;;;;;;7.20;5.40;;;17.70;99.90;;;;;;6236773;23;19991;-93
2021/06/16 23:17:56;;;;;;;7.28;6.15;;;17.70;99.90;;;;;;6234619;23;20382;-94
2021/06/16 23:20:23;;;;;;;6.65;5.82;;;17.70;99.90;;;;;;6234332;23;20296;-93
2021/06/16 23:22:49;;;;;;;6.90;5.30;;;17.70;99.90;;;;;;6235239;23;20008;-93
2021/06/16 23:25:16;;;;;;;6.90;4.95;;;17.70;99.90;;;;;;6234487;22;20017;-93
2021/06/16 23:27:42;;;;;;;6.78;5.65;;;17.70;99.90;;;;;;6234207;23;20001;-93
2021/06/16 23:30:14;;;;;;;9.02;6.68;;;17.70;99.90;;;;;;6233463;23;19997;-93
2021/06/16 23:32:41;;;;;;;7.93;7.00;;;17.70;99.90;;;;;;6234290;23;20052;-93
2021/06/16 23:35:07;;;;;;;6.78;5.40;;;17.60;99.90;;;;;;6235543;23;20000;-94
2021/06/16 23:37:33;;;;;;;8.77;6.45;;;17.70;99.90;;;;;;6236201;23;20056;-93
2021/06/16 23:39:59;;;;;;;5.65;4.93;;;17.60;99.90;;;;;;6234852;23;19997;-93
2021/06/16 23:42:27;;;;;;;7.03;6.03;;;17.60;99.90;;;;;;6235344;23;20021;-94
2021/06/16 23:44:53;;;;;;;6.90;5.68;;;17.60;99.90;;;;;;6235999;23;20018;-93
2021/06/16 23:47:21;;;;;;;7.50;5.80;;;17.60;99.90;;;;;;6234290;23;20004;-94
2021/06/16 23:49:47;;;;;;;6.07;4.75;;;17.60;99.90;;;;;;6234148;23;20063;-93
2021/06/16 23:52:13;;;;;;;7.47;5.03;;;17.60;99.90;;;;;;6233014;23;20000;-94
2021/06/16 23:54:39;;;;;;;6.93;5.90;;;17.70;99.90;;;;;;6234866;23;19997;-93
2021/06/16 23:57:05;;;;;;;7.57;5.65;;;17.70;99.90;;;;;;6228144;23;20057;-94
2021/06/16 23:59:32;;;;;;;7.18;5.22;;;17.70;99.90;;;;;;6226459;23;19993;-94
